createdAt,value
2019-02-17T00:00:35.463Z,39.8
2019-02-17T00:01:44.715Z,39.8
2019-02-17T00:02:53.961Z,40
2019-02-17T00:04:03.274Z,39.9
2019-02-17T00:05:12.546Z,40
2019-02-17T00:06:21.844Z,40.4
2019-02-17T00:07:31.133Z,40.1
2019-02-17T00:08:40.439Z,40.1
2019-02-17T00:09:49.733Z,40
2019-02-17T00:10:59.013Z,40.2
2019-02-17T00:12:08.291Z,40.5
2019-02-17T00:13:17.601Z,40.5
2019-02-17T00:14:26.882Z,40.6
2019-02-17T00:15:36.284Z,40.9
2019-02-17T00:16:45.650Z,41.4
2019-02-17T00:17:54.858Z,41.8
2019-02-17T00:19:04.060Z,42.6
2019-02-17T00:20:13.373Z,43
2019-02-17T00:21:22.634Z,43.1
2019-02-17T00:22:31.940Z,43.8
2019-02-17T00:23:41.439Z,43.9
2019-02-17T00:24:50.509Z,43.8
2019-02-17T00:25:59.798Z,43.8
2019-02-17T00:27:09.088Z,44.7
2019-02-17T00:28:18.399Z,44.8
2019-02-17T00:29:27.667Z,44.2
2019-02-17T00:30:36.971Z,45.3
2019-02-17T00:31:46.349Z,45.3
2019-02-17T00:32:55.567Z,46.1
2019-02-17T00:34:04.822Z,46.1
2019-02-17T00:35:14.110Z,46.4
2019-02-17T00:36:23.399Z,46.4
2019-02-17T00:37:32.697Z,46.6
2019-02-17T00:38:42.082Z,46.5
2019-02-17T00:39:51.255Z,46.7
2019-02-17T00:41:00.563Z,46.8
2019-02-17T00:42:09.860Z,47
2019-02-17T00:43:19.126Z,47.5
2019-02-17T00:44:28.394Z,47.6
2019-02-17T00:45:37.673Z,47.9
2019-02-17T00:46:46.948Z,47.9
2019-02-17T00:47:56.270Z,48.1
2019-02-17T00:49:05.555Z,49.2
2019-02-17T00:50:14.812Z,49.2
2019-02-17T00:51:24.146Z,49.2
2019-02-17T00:52:33.448Z,49.2
2019-02-17T00:53:42.638Z,49.2
2019-02-17T00:54:51.918Z,49.2
2019-02-17T00:56:01.221Z,49.2
2019-02-17T00:57:10.609Z,49.2
2019-02-17T00:58:19.765Z,49.2
2019-02-17T00:59:29.040Z,49.1
2019-02-17T01:00:38.298Z,49.1
2019-02-17T01:01:47.672Z,49.5
2019-02-17T01:02:56.845Z,49.8
2019-02-17T01:04:06.125Z,50.3
2019-02-17T01:05:15.405Z,50.6
2019-02-17T01:06:24.675Z,50.9
2019-02-17T01:07:33.947Z,51.5
2019-02-17T01:08:43.215Z,51.5
2019-02-17T01:09:52.500Z,51.5
2019-02-17T01:11:01.783Z,51.8
2019-02-17T01:12:11.078Z,51.9
2019-02-17T01:13:20.305Z,52.5
2019-02-17T01:14:29.717Z,52.1
2019-02-17T01:15:38.845Z,52.3
2019-02-17T01:16:48.134Z,52
2019-02-17T01:17:57.389Z,52.3
2019-02-17T01:19:06.702Z,52
2019-02-17T01:20:15.915Z,52.7
2019-02-17T01:21:25.184Z,53.4
2019-02-17T01:22:34.463Z,53.7
2019-02-17T01:23:43.721Z,54.1
2019-02-17T01:24:53.052Z,54.1
2019-02-17T01:26:02.313Z,54.1
2019-02-17T01:27:11.531Z,54.1
2019-02-17T01:28:20.797Z,54.5
2019-02-17T01:29:30.076Z,54.4
2019-02-17T01:30:39.332Z,54.4
2019-02-17T01:31:48.649Z,54.6
2019-02-17T01:32:57.888Z,55.5
2019-02-17T01:34:07.134Z,55.2
2019-02-17T01:35:16.428Z,55.2
2019-02-17T01:36:25.650Z,55.9
2019-02-17T01:37:34.908Z,56.3
2019-02-17T01:38:44.172Z,56.6
2019-02-17T01:39:53.438Z,55.9
2019-02-17T01:41:02.714Z,56.5
2019-02-17T01:42:12.037Z,57.7
2019-02-17T01:43:21.213Z,57.5
2019-02-17T01:44:30.488Z,57.3
2019-02-17T01:45:39.747Z,57
2019-02-17T01:46:49.044Z,57
2019-02-17T01:47:58.281Z,57.8
2019-02-17T01:49:07.532Z,58.6
2019-02-17T01:50:16.828Z,59.5
2019-02-17T01:51:26.052Z,59.6
2019-02-17T01:52:35.301Z,58.9
2019-02-17T01:53:44.545Z,59.1
2019-02-17T01:54:53.823Z,59.5
2019-02-17T01:56:03.135Z,59.5
2019-02-17T01:57:12.351Z,59.5
2019-02-17T01:58:21.585Z,59.4
2019-02-17T01:59:31.135Z,60.1
2019-02-17T02:00:40.141Z,60.7
2019-02-17T02:01:49.356Z,60.1
2019-02-17T02:02:58.618Z,60.9
2019-02-17T02:04:07.869Z,60.8
2019-02-17T02:05:17.112Z,60.6
2019-02-17T02:06:26.378Z,61
2019-02-17T02:07:35.661Z,60.5
2019-02-17T02:08:44.872Z,61.1
2019-02-17T02:09:54.171Z,61.5
2019-02-17T02:11:03.403Z,61
2019-02-17T02:12:12.656Z,60.9
2019-02-17T02:13:21.882Z,61.5
2019-02-17T02:14:31.200Z,61.3
2019-02-17T02:15:40.377Z,61.2
2019-02-17T02:16:49.639Z,61.3
2019-02-17T02:17:58.925Z,61.2
2019-02-17T02:19:08.143Z,62.6
2019-02-17T02:20:17.421Z,62
2019-02-17T02:21:26.640Z,62.1
2019-02-17T02:22:35.917Z,62.2
2019-02-17T02:23:45.116Z,61.6
2019-02-17T02:24:54.370Z,61
2019-02-17T02:26:03.616Z,61.4
2019-02-17T02:27:12.860Z,61.8
2019-02-17T02:28:22.177Z,61.5
2019-02-17T02:29:41.420Z,61.5
2019-02-17T02:30:40.600Z,61.8
2019-02-17T02:31:49.990Z,61.8
2019-02-17T02:32:59.124Z,61.1
2019-02-17T02:34:08.340Z,62
2019-02-17T02:35:17.668Z,62.2
2019-02-17T02:36:26.961Z,61.4
2019-02-17T02:37:36.157Z,61.1
2019-02-17T02:38:45.320Z,61.3
2019-02-17T02:39:54.574Z,61.4
2019-02-17T02:41:03.806Z,62.4
2019-02-17T02:42:13.060Z,62.4
2019-02-17T02:43:22.292Z,63.2
2019-02-17T02:44:31.564Z,63.3
2019-02-17T02:45:40.784Z,63.7
2019-02-17T02:46:50.028Z,64.5
2019-02-17T02:47:59.279Z,64.4
2019-02-17T02:49:08.521Z,65.2
2019-02-17T02:50:17.784Z,66.2
2019-02-17T02:51:26.983Z,65
2019-02-17T02:52:36.228Z,64.5
2019-02-17T02:53:45.474Z,64.5
2019-02-17T02:54:54.712Z,64.5
2019-02-17T02:56:03.930Z,64.5
2019-02-17T02:57:13.164Z,64.5
2019-02-17T02:58:22.403Z,64.5
2019-02-17T02:59:31.656Z,64.6
2019-02-17T03:00:40.916Z,65.7
2019-02-17T03:01:50.134Z,66.6
2019-02-17T03:02:59.392Z,66.4
2019-02-17T03:04:08.597Z,66.7
2019-02-17T03:05:17.840Z,66.8
2019-02-17T03:06:27.060Z,67.2
2019-02-17T03:07:36.301Z,66.6
2019-02-17T03:08:45.669Z,66.7
2019-02-17T03:09:54.824Z,67.2
2019-02-17T03:11:04.007Z,67
2019-02-17T03:12:13.240Z,66.9
2019-02-17T03:13:22.485Z,66.9
2019-02-17T03:14:31.818Z,67.7
2019-02-17T03:15:40.942Z,67.7
2019-02-17T03:16:50.175Z,67.7
2019-02-17T03:17:59.411Z,68.2
2019-02-17T03:19:08.635Z,69.5
2019-02-17T03:20:17.973Z,69.2
2019-02-17T03:21:27.193Z,68.6
2019-02-17T03:22:36.353Z,67.9
2019-02-17T03:23:45.572Z,67.5
2019-02-17T03:24:54.813Z,67.8
2019-02-17T03:26:04.037Z,67.9
2019-02-17T03:27:13.270Z,67.7
2019-02-17T03:28:22.500Z,67.7
2019-02-17T03:29:31.730Z,67.7
2019-02-17T03:30:40.969Z,67.8
2019-02-17T03:31:50.210Z,67.3
2019-02-17T03:32:59.425Z,67.1
2019-02-17T03:34:08.704Z,67.4
2019-02-17T03:35:17.874Z,67.2
2019-02-17T03:36:27.108Z,67.3
2019-02-17T03:37:36.379Z,67.1
2019-02-17T03:38:45.577Z,67.1
2019-02-17T03:39:54.813Z,67
2019-02-17T03:41:04.036Z,67
2019-02-17T03:42:13.306Z,66.8
2019-02-17T03:43:22.513Z,66.9
2019-02-17T03:44:31.734Z,66.2
2019-02-17T03:45:41.015Z,65.8
2019-02-17T03:46:50.250Z,65.7
2019-02-17T03:47:59.436Z,66.2
2019-02-17T03:49:08.711Z,66.4
2019-02-17T03:50:17.895Z,65.7
2019-02-17T03:51:27.133Z,66.6
2019-02-17T03:52:36.361Z,65.9
2019-02-17T03:53:45.588Z,65.3
2019-02-17T03:54:54.842Z,65.7
2019-02-17T03:56:04.070Z,66.9
2019-02-17T03:57:13.292Z,67.4
2019-02-17T03:58:22.542Z,67.7
2019-02-17T03:59:31.749Z,67.9
2019-02-17T04:00:41.016Z,67.9
2019-02-17T04:01:50.267Z,67.6
2019-02-17T04:02:59.446Z,67
2019-02-17T04:04:08.668Z,66.8
2019-02-17T04:05:17.930Z,66.3
2019-02-17T04:06:27.185Z,66.9
2019-02-17T04:07:36.373Z,67
2019-02-17T04:08:45.607Z,67.1
2019-02-17T04:09:54.842Z,66.7
2019-02-17T04:11:04.059Z,66.6
2019-02-17T04:12:13.306Z,67.3
2019-02-17T04:13:22.525Z,67.7
2019-02-17T04:14:31.757Z,68.6
2019-02-17T04:15:40.989Z,68.1
2019-02-17T04:16:50.219Z,68.3
2019-02-17T04:17:59.540Z,67.9
2019-02-17T04:19:08.677Z,68.1
2019-02-17T04:20:17.909Z,67.4
2019-02-17T04:21:27.140Z,67.5
2019-02-17T04:22:36.377Z,67.7
2019-02-17T04:23:45.641Z,67.1
2019-02-17T04:24:54.831Z,67
2019-02-17T04:26:04.076Z,66.9
2019-02-17T04:27:13.312Z,67.5
2019-02-17T04:28:22.577Z,67.4
2019-02-17T04:29:31.856Z,67.1
2019-02-17T04:30:40.992Z,67
2019-02-17T04:31:50.256Z,66.5
2019-02-17T04:32:59.451Z,66.3
2019-02-17T04:34:08.725Z,67.3
2019-02-17T04:35:17.959Z,67.8
2019-02-17T04:36:27.229Z,68.5
2019-02-17T04:37:36.396Z,68.8
2019-02-17T04:38:45.643Z,68.5
2019-02-17T04:39:54.953Z,68.2
2019-02-17T04:41:04.072Z,67.9
2019-02-17T04:42:13.303Z,67.9
2019-02-17T04:43:22.541Z,67.9
2019-02-17T04:44:31.761Z,67.5
2019-02-17T04:45:41.030Z,67
2019-02-17T04:46:50.238Z,67.3
2019-02-17T04:47:59.462Z,67.2
2019-02-17T04:49:08.699Z,67.1
2019-02-17T04:50:17.919Z,67.4
2019-02-17T04:51:27.150Z,67.3
2019-02-17T04:52:36.388Z,67.6
2019-02-17T04:53:45.622Z,67.9
2019-02-17T04:54:54.871Z,67.9
2019-02-17T04:56:04.076Z,67.4
2019-02-17T04:57:13.305Z,67.8
2019-02-17T04:58:22.531Z,68.4
2019-02-17T04:59:31.777Z,68.4
2019-02-17T05:00:41.122Z,68.5
2019-02-17T05:01:50.266Z,68.6
2019-02-17T05:02:59.503Z,68.6
2019-02-17T05:04:08.709Z,69
2019-02-17T05:05:18.031Z,69.3
2019-02-17T05:06:27.158Z,69.6
2019-02-17T05:07:36.413Z,69.6
2019-02-17T05:08:45.626Z,69.5
2019-02-17T05:09:54.847Z,69.6
2019-02-17T05:11:04.102Z,69.6
2019-02-17T05:12:13.329Z,70.8
2019-02-17T05:13:22.559Z,70.6
2019-02-17T05:14:31.777Z,69.6
2019-02-17T05:15:41.038Z,70
2019-02-17T05:16:50.278Z,69.7
2019-02-17T05:17:59.464Z,69.7
2019-02-17T05:19:08.701Z,71.1
2019-02-17T05:20:17.926Z,70.7
2019-02-17T05:21:27.144Z,70.3
2019-02-17T05:22:39.645Z,70.3
2019-02-17T05:23:45.602Z,70.3
2019-02-17T05:24:54.837Z,70.4
2019-02-17T05:26:04.165Z,70.4
2019-02-17T05:27:13.284Z,70.9
2019-02-17T05:28:22.540Z,71.8
2019-02-17T05:29:31.746Z,72
2019-02-17T05:30:53.443Z,72.3
2019-02-17T05:31:50.204Z,72.3
2019-02-17T05:32:59.631Z,71.9
2019-02-17T05:34:08.652Z,71.4
2019-02-17T05:35:17.881Z,71.5
2019-02-17T05:36:27.184Z,72
2019-02-17T05:37:36.401Z,72
2019-02-17T05:38:45.569Z,71.9
2019-02-17T05:39:54.885Z,72.2
2019-02-17T05:41:04.051Z,72.2
2019-02-17T05:42:13.276Z,72.2
2019-02-17T05:43:22.521Z,71.9
2019-02-17T05:44:31.697Z,72.4
2019-02-17T05:45:40.934Z,72.5
2019-02-17T05:46:50.146Z,73
2019-02-17T05:47:59.369Z,73.6
2019-02-17T05:49:08.594Z,74.2
2019-02-17T05:50:17.822Z,73.7
2019-02-17T05:51:27.044Z,74.1
2019-02-17T05:52:36.451Z,74.6
2019-02-17T05:53:45.491Z,74.6
2019-02-17T05:54:54.738Z,74.6
2019-02-17T05:56:03.970Z,74.6
2019-02-17T05:57:13.184Z,73.7
2019-02-17T05:58:22.471Z,72.9
2019-02-17T05:59:31.626Z,73
2019-02-17T06:00:40.878Z,72.7
2019-02-17T06:01:50.125Z,72.9
2019-02-17T06:02:59.291Z,73.1
2019-02-17T06:04:08.528Z,73.6
2019-02-17T06:05:17.760Z,73.6
2019-02-17T06:06:27.008Z,73.6
2019-02-17T06:07:36.342Z,73.7
2019-02-17T06:08:45.435Z,73.4
2019-02-17T06:09:54.651Z,74.6
2019-02-17T06:11:03.887Z,74.6
2019-02-17T06:12:13.104Z,75.3
2019-02-17T06:13:22.345Z,75.7
2019-02-17T06:14:31.704Z,75.4
2019-02-17T06:15:40.773Z,75.7
2019-02-17T06:16:50.006Z,75.6
2019-02-17T06:17:59.222Z,76.2
2019-02-17T06:19:08.464Z,75.9
2019-02-17T06:20:17.665Z,75.7
2019-02-17T06:21:26.883Z,75
2019-02-17T06:22:36.168Z,74.6
2019-02-17T06:23:45.361Z,74.6
2019-02-17T06:24:56.220Z,74.6
2019-02-17T06:26:05.363Z,74.5
2019-02-17T06:27:14.614Z,74.6
2019-02-17T06:28:23.829Z,74.6
2019-02-17T06:29:33.022Z,75
2019-02-17T06:30:42.242Z,75
2019-02-17T06:31:51.487Z,74.6
2019-02-17T06:33:00.704Z,74.6
2019-02-17T06:34:09.917Z,74.6
2019-02-17T06:35:19.231Z,75
2019-02-17T06:36:28.372Z,74.9
2019-02-17T06:37:37.570Z,74.6
2019-02-17T06:38:46.821Z,72.6
2019-02-17T06:39:56.022Z,72.2
2019-02-17T06:41:05.242Z,72.9
2019-02-17T06:42:14.457Z,72.6
2019-02-17T06:43:23.700Z,72.4
2019-02-17T06:44:32.912Z,71.9
2019-02-17T06:45:42.139Z,71.8
2019-02-17T06:46:51.357Z,71.4
2019-02-17T06:48:00.614Z,71.1
2019-02-17T06:49:09.809Z,70.6
2019-02-17T06:50:19.065Z,70.1
2019-02-17T06:51:28.270Z,69.8
2019-02-17T06:52:37.497Z,70
2019-02-17T06:53:46.744Z,70.4
2019-02-17T06:54:55.978Z,69.8
2019-02-17T06:56:05.176Z,69.9
2019-02-17T06:57:14.422Z,69.9
2019-02-17T06:58:23.695Z,69.9
2019-02-17T06:59:32.885Z,69.9
2019-02-17T07:00:42.145Z,69.9
2019-02-17T07:01:51.362Z,69.9
2019-02-17T07:03:00.616Z,69.9
2019-02-17T07:04:09.859Z,69.9
2019-02-17T07:05:19.203Z,69.9
2019-02-17T07:06:28.413Z,68.6
2019-02-17T07:07:37.611Z,69
2019-02-17T07:08:46.804Z,68.4
2019-02-17T07:09:56.029Z,68.2
2019-02-17T07:11:05.279Z,68
2019-02-17T07:12:14.532Z,68
2019-02-17T07:13:23.761Z,68.8
2019-02-17T07:14:33.010Z,68.7
2019-02-17T07:15:42.254Z,68.1
2019-02-17T07:16:51.502Z,68.4
2019-02-17T07:18:00.811Z,67.8
2019-02-17T07:19:09.995Z,67.2
2019-02-17T07:20:19.244Z,67
2019-02-17T07:21:28.508Z,66.4
2019-02-17T07:22:37.783Z,65.5
2019-02-17T07:23:47.037Z,65.9
2019-02-17T07:24:56.246Z,64.8
2019-02-17T07:26:05.501Z,65.3
2019-02-17T07:27:14.799Z,65.9
2019-02-17T07:28:24.003Z,65
2019-02-17T07:29:33.313Z,63.8
2019-02-17T07:30:42.611Z,63.6
2019-02-17T07:31:51.806Z,63.9
2019-02-17T07:33:01.051Z,63.2
2019-02-17T07:34:10.300Z,63.9
2019-02-17T07:35:19.597Z,61.9
2019-02-17T07:36:28.814Z,61.4
2019-02-17T07:37:38.067Z,60
2019-02-17T07:38:47.423Z,55.3
2019-02-17T07:39:56.599Z,54.7
2019-02-17T07:41:05.859Z,55.2
2019-02-17T07:42:15.159Z,54.6
2019-02-17T07:43:24.404Z,54.6
2019-02-17T07:44:33.687Z,53.8
2019-02-17T07:45:42.929Z,53.6
2019-02-17T07:46:52.198Z,54.5
2019-02-17T07:48:01.501Z,53.5
2019-02-17T07:49:10.746Z,54.7
2019-02-17T07:50:20.084Z,55.9
2019-02-17T07:51:29.288Z,54.6
2019-02-17T07:52:38.587Z,54.7
2019-02-17T07:53:47.850Z,53.6
2019-02-17T07:54:57.108Z,51.5
2019-02-17T07:56:06.393Z,48.3
2019-02-17T07:57:15.683Z,44.2
2019-02-17T07:58:24.966Z,44.2
2019-02-17T07:59:34.284Z,46.1
2019-02-17T08:00:43.515Z,48.1
2019-02-17T08:01:52.811Z,47.6
2019-02-17T08:03:02.093Z,48.6
2019-02-17T08:04:11.391Z,50.4
2019-02-17T08:05:20.693Z,46.5
2019-02-17T08:06:29.974Z,48.6
2019-02-17T08:07:39.281Z,50
2019-02-17T08:08:48.591Z,48.5
2019-02-17T08:09:57.917Z,47.1
2019-02-17T08:11:07.157Z,48
2019-02-17T08:12:16.511Z,49.6
2019-02-17T08:13:25.780Z,49.1
2019-02-17T08:14:35.101Z,49.4
2019-02-17T08:15:44.384Z,48.1
2019-02-17T08:16:53.689Z,46.5
2019-02-17T08:18:02.995Z,47.2
2019-02-17T08:19:12.288Z,49.5
2019-02-17T08:20:21.600Z,49.5
2019-02-17T08:21:30.953Z,47.5
2019-02-17T08:22:40.291Z,48.3
2019-02-17T08:23:49.561Z,45
2019-02-17T08:24:58.853Z,39.3
2019-02-17T08:26:08.201Z,37
2019-02-17T08:27:17.508Z,38.2
2019-02-17T08:28:26.866Z,37
2019-02-17T08:29:36.124Z,36.5
2019-02-17T08:30:45.437Z,36.1
2019-02-17T08:31:56.286Z,33.7
2019-02-17T08:33:04.090Z,34.5
2019-02-17T08:34:13.530Z,34.4
2019-02-17T08:35:22.783Z,33.9
2019-02-17T08:36:32.152Z,30.8
2019-02-17T08:37:41.493Z,32.2
2019-02-17T08:38:50.790Z,34.8
2019-02-17T08:40:00.459Z,37.2
2019-02-17T08:41:09.481Z,38.9
2019-02-17T08:42:18.823Z,39.9
2019-02-17T08:43:28.342Z,38.5
2019-02-17T08:44:37.593Z,33.9
2019-02-17T08:45:47.051Z,34.4
2019-02-17T08:46:56.233Z,34.9
2019-02-17T08:48:05.613Z,36.9
2019-02-17T08:49:14.999Z,37
2019-02-17T08:50:24.348Z,39.1
2019-02-17T08:51:33.652Z,36.1
2019-02-17T08:52:43.089Z,32.8
2019-02-17T08:53:52.471Z,31.8
2019-02-17T08:55:01.728Z,29.8
2019-02-17T08:56:11.217Z,26.8
2019-02-17T08:57:20.472Z,26.8
2019-02-17T08:58:30.038Z,25.7
2019-02-17T08:59:39.201Z,22.7
2019-02-17T09:00:48.559Z,20.1
2019-02-17T09:02:06.378Z,22.5
2019-02-17T09:03:07.309Z,24.4
2019-02-17T09:04:16.702Z,22
2019-02-17T09:05:26.119Z,21.2
2019-02-17T09:06:35.480Z,22.3
2019-02-17T09:07:44.908Z,22.3
2019-02-17T09:08:54.245Z,20.9
2019-02-17T09:10:03.787Z,20.9
2019-02-17T09:11:13.059Z,20.1
2019-02-17T09:12:22.485Z,20.2
2019-02-17T09:13:31.862Z,19.8
2019-02-17T09:14:41.297Z,19.8
2019-02-17T09:15:50.696Z,20.2
2019-02-17T09:17:00.096Z,20.1
2019-02-17T09:18:09.605Z,19.2
2019-02-17T09:19:19.091Z,19.9
2019-02-17T09:20:28.362Z,21.4
2019-02-17T09:21:37.839Z,23.9
2019-02-17T09:22:47.201Z,23.5
2019-02-17T09:23:56.632Z,22.2
2019-02-17T09:25:06.041Z,21.6
2019-02-17T09:26:15.471Z,20.1
2019-02-17T09:27:24.929Z,18.2
2019-02-17T09:28:34.309Z,17.5
2019-02-17T09:29:43.746Z,17.7
2019-02-17T09:30:53.212Z,17.2
2019-02-17T09:32:02.695Z,17
2019-02-17T09:33:12.056Z,17
2019-02-17T09:34:21.487Z,15.4
2019-02-17T09:35:30.934Z,15.4
2019-02-17T09:36:40.391Z,16.1
2019-02-17T09:37:49.834Z,17
2019-02-17T09:38:59.285Z,16
2019-02-17T09:40:08.743Z,16
2019-02-17T09:41:18.306Z,17.9
2019-02-17T09:42:27.647Z,19.3
2019-02-17T09:43:37.100Z,20
2019-02-17T09:44:46.580Z,18.3
2019-02-17T09:45:56.026Z,18.8
2019-02-17T09:47:05.476Z,18.5
2019-02-17T09:48:15.018Z,16
2019-02-17T09:49:24.446Z,15.6
2019-02-17T09:50:33.868Z,15.5
2019-02-17T09:51:43.339Z,17.2
2019-02-17T09:52:52.800Z,16.6
2019-02-17T09:54:02.312Z,15.9
2019-02-17T09:55:11.758Z,17.2
2019-02-17T09:56:21.241Z,15.8
2019-02-17T09:57:30.748Z,15.9
2019-02-17T09:58:40.284Z,16.8
2019-02-17T09:59:49.629Z,17.1
2019-02-17T10:00:59.132Z,17.1
2019-02-17T10:02:08.557Z,17.3
2019-02-17T10:03:18.078Z,15.9
2019-02-17T10:04:27.535Z,15.8
2019-02-17T10:05:36.965Z,15.9
2019-02-17T10:06:46.457Z,16.1
2019-02-17T10:07:55.910Z,15.7
2019-02-17T10:09:05.496Z,13.6
2019-02-17T10:10:14.877Z,14.4
2019-02-17T10:11:24.358Z,14
2019-02-17T10:12:33.843Z,13.7
2019-02-17T10:13:43.330Z,13.6
2019-02-17T10:14:52.839Z,13.9
2019-02-17T10:16:02.328Z,13.2
2019-02-17T10:17:11.943Z,13.7
2019-02-17T10:18:21.312Z,14.9
2019-02-17T10:19:30.810Z,15.8
2019-02-17T10:20:40.295Z,15.9
2019-02-17T10:21:49.803Z,15.7
2019-02-17T10:22:59.302Z,15.2
2019-02-17T10:24:08.795Z,14.4
2019-02-17T10:25:18.381Z,16
2019-02-17T10:26:27.835Z,15.6
2019-02-17T10:27:37.300Z,15.8
2019-02-17T10:28:46.868Z,16.6
2019-02-17T10:29:56.317Z,15.9
2019-02-17T10:31:05.825Z,15.6
2019-02-17T10:32:15.362Z,17
2019-02-17T10:33:24.884Z,17.4
2019-02-17T10:34:34.363Z,15.2
2019-02-17T10:35:43.849Z,15.6
2019-02-17T10:36:53.339Z,17.1
2019-02-17T10:38:02.929Z,16.7
2019-02-17T10:39:12.346Z,15.8
2019-02-17T10:40:21.849Z,15.9
2019-02-17T10:41:31.498Z,13.9
2019-02-17T10:42:41.023Z,13.3
2019-02-17T10:43:50.386Z,13.7
2019-02-17T10:44:59.879Z,14.3
2019-02-17T10:46:09.380Z,15.9
2019-02-17T10:47:18.902Z,15.9
2019-02-17T10:48:28.398Z,13.6
2019-02-17T10:49:37.930Z,12.9
2019-02-17T10:50:47.531Z,14.7
2019-02-17T10:51:57.030Z,15.7
2019-02-17T10:53:06.460Z,15.7
2019-02-17T10:54:16.162Z,14.1
2019-02-17T10:55:25.508Z,13.5
2019-02-17T10:56:34.984Z,13.6
2019-02-17T10:57:44.547Z,12.4
2019-02-17T10:58:54.031Z,12.4
2019-02-17T11:00:03.604Z,14.3
2019-02-17T11:01:13.150Z,15.6
2019-02-17T11:02:22.583Z,14.9
2019-02-17T11:03:32.098Z,15.8
2019-02-17T11:04:41.824Z,15.8
2019-02-17T11:05:51.129Z,14.8
2019-02-17T11:07:00.676Z,16
2019-02-17T11:08:10.160Z,16.6
2019-02-17T11:09:19.832Z,15.7
2019-02-17T11:10:29.177Z,15.4
2019-02-17T11:11:38.687Z,15.5
2019-02-17T11:12:48.206Z,14.6
2019-02-17T11:13:57.722Z,13.1
2019-02-17T11:15:07.300Z,12.6
2019-02-17T11:16:16.761Z,13.3
2019-02-17T11:17:26.489Z,13.7
2019-02-17T11:18:35.756Z,14.4
2019-02-17T11:19:45.330Z,14.3
2019-02-17T11:20:54.776Z,13
2019-02-17T11:22:04.350Z,12.5
2019-02-17T11:23:13.835Z,13.4
2019-02-17T11:24:23.327Z,12.8
2019-02-17T11:25:32.833Z,12.7
2019-02-17T11:26:42.377Z,12.4
2019-02-17T11:27:51.869Z,12.8
2019-02-17T11:29:01.478Z,12.3
2019-02-17T11:30:11.029Z,12.7
2019-02-17T11:31:20.429Z,12.8
2019-02-17T11:32:32.458Z,13.6
2019-02-17T11:33:39.456Z,12.2
2019-02-17T11:34:48.980Z,11.8
2019-02-17T11:35:58.528Z,12.7
2019-02-17T11:37:08.037Z,11.5
2019-02-17T11:38:17.563Z,12.5
2019-02-17T11:39:27.162Z,14.3
2019-02-17T11:40:36.766Z,14.1
2019-02-17T11:41:46.231Z,13.2
2019-02-17T11:42:55.681Z,12.1
2019-02-17T11:44:05.216Z,11.5
2019-02-17T11:45:14.809Z,11.1
2019-02-17T11:46:24.305Z,9.9
2019-02-17T11:47:33.804Z,10.3
2019-02-17T11:48:43.395Z,9.7
2019-02-17T11:49:52.967Z,10.2
2019-02-17T11:51:02.434Z,10.6
2019-02-17T11:52:12.057Z,10.3
2019-02-17T11:53:21.484Z,8.3
2019-02-17T11:54:31.055Z,9.6
2019-02-17T11:55:40.593Z,10.9
2019-02-17T11:56:50.163Z,10.3
2019-02-17T11:57:59.683Z,7.9
2019-02-17T11:59:09.314Z,8
2019-02-17T12:00:18.806Z,8.2
2019-02-17T12:01:28.391Z,6.3
2019-02-17T12:02:37.926Z,7.9
2019-02-17T12:03:47.587Z,8
2019-02-17T12:04:57.055Z,6.8
2019-02-17T12:06:06.630Z,7.7
2019-02-17T12:07:16.247Z,8.6
2019-02-17T12:08:25.783Z,10
2019-02-17T12:09:35.371Z,8.1
2019-02-17T12:10:44.972Z,7
2019-02-17T12:11:54.516Z,7.9
2019-02-17T12:13:04.109Z,7.4
2019-02-17T12:14:13.797Z,7.6
2019-02-17T12:15:23.264Z,8
2019-02-17T12:16:37.399Z,7.9
2019-02-17T12:17:42.433Z,5.8
2019-02-17T12:18:52.016Z,5.9
2019-02-17T12:20:01.655Z,6.9
2019-02-17T12:21:11.241Z,7.6
2019-02-17T12:22:20.770Z,8.5
2019-02-17T12:23:30.376Z,7.8
2019-02-17T12:24:39.999Z,7.1
2019-02-17T12:25:49.525Z,7.4
2019-02-17T12:26:59.120Z,8.3
2019-02-17T12:28:08.708Z,8.3
2019-02-17T12:29:18.318Z,5.8
2019-02-17T12:30:27.892Z,5.3
2019-02-17T12:31:37.521Z,4.1
2019-02-17T12:32:47.094Z,3.7
2019-02-17T12:33:56.696Z,4.2
2019-02-17T12:35:06.304Z,7.8
2019-02-17T12:36:15.906Z,7.1
2019-02-17T12:37:25.516Z,7.6
2019-02-17T12:38:35.130Z,7.7
2019-02-17T12:39:44.728Z,7.3
2019-02-17T12:40:54.328Z,8.5
2019-02-17T12:42:03.936Z,8.4
2019-02-17T12:43:13.581Z,7.5
2019-02-17T12:44:23.162Z,8.3
2019-02-17T12:45:32.759Z,8.4
2019-02-17T12:46:42.347Z,7.8
2019-02-17T12:47:58.562Z,7.8
2019-02-17T12:49:01.553Z,7
2019-02-17T12:50:11.270Z,6.9
2019-02-17T12:51:20.754Z,6
2019-02-17T12:52:30.377Z,4.6
2019-02-17T12:53:39.989Z,3.1
2019-02-17T12:54:49.578Z,5.3
2019-02-17T12:55:59.201Z,5
2019-02-17T12:57:08.806Z,6.9
2019-02-17T12:58:29.558Z,7.7
2019-02-17T12:59:28.032Z,6.6
2019-02-17T13:00:37.662Z,6.7
2019-02-17T13:01:47.379Z,7.1
2019-02-17T13:02:56.889Z,7.9
2019-02-17T13:04:06.622Z,6.5
2019-02-17T13:05:16.114Z,5.7
2019-02-17T13:06:26.823Z,4.2
2019-02-17T13:07:35.345Z,3.9
2019-02-17T13:08:44.975Z,6
2019-02-17T13:09:54.589Z,7.3
2019-02-17T13:11:04.264Z,7.1
2019-02-17T13:12:13.837Z,7.3
2019-02-17T13:13:23.474Z,7.4
2019-02-17T13:14:33.105Z,6.9
2019-02-17T13:15:42.652Z,6.5
2019-02-17T13:16:52.276Z,7.6
2019-02-17T13:18:01.935Z,7.7
2019-02-17T13:19:11.491Z,7.8
2019-02-17T13:20:21.106Z,7.9
2019-02-17T13:21:30.752Z,7.6
2019-02-17T13:22:40.307Z,7.3
2019-02-17T13:23:49.943Z,7.2
2019-02-17T13:24:59.536Z,7.5
2019-02-17T13:26:09.119Z,7.7
2019-02-17T13:27:18.735Z,8.2
2019-02-17T13:28:28.317Z,8.5
2019-02-17T13:29:40.384Z,8.7
2019-02-17T13:30:47.538Z,10
2019-02-17T13:31:57.080Z,10.5
2019-02-17T13:33:06.661Z,9.8
2019-02-17T13:34:16.295Z,9.1
2019-02-17T13:35:25.815Z,9.2
2019-02-17T13:36:35.390Z,10.1
2019-02-17T13:37:45.021Z,10.4
2019-02-17T13:38:54.608Z,10.2
2019-02-17T13:40:04.108Z,11.1
2019-02-17T13:41:13.742Z,11.2
2019-02-17T13:42:23.227Z,10.7
2019-02-17T13:43:32.767Z,9.4
2019-02-17T13:44:42.365Z,9.3
2019-02-17T13:45:51.871Z,9
2019-02-17T13:47:01.515Z,10.5
2019-02-17T13:48:10.997Z,10.8
2019-02-17T13:49:20.522Z,10.5
2019-02-17T13:50:30.102Z,10.8
2019-02-17T13:51:39.624Z,10.8
2019-02-17T13:52:49.183Z,9.1
2019-02-17T13:53:58.914Z,9.3
2019-02-17T13:55:08.246Z,9.7
2019-02-17T13:56:17.807Z,10.4
2019-02-17T13:57:27.412Z,9.6
2019-02-17T13:58:36.912Z,9.7
2019-02-17T13:59:46.439Z,9.6
2019-02-17T14:00:55.970Z,9.4
2019-02-17T14:02:05.518Z,9.5
2019-02-17T14:03:15.093Z,9.9
2019-02-17T14:04:24.607Z,10.4
2019-02-17T14:05:34.152Z,10.6
2019-02-17T14:06:43.710Z,10.9
2019-02-17T14:07:53.243Z,11.4
2019-02-17T14:09:02.774Z,11.5
2019-02-17T14:10:12.348Z,11.5
2019-02-17T14:11:21.835Z,10.8
2019-02-17T14:12:31.373Z,10.9
2019-02-17T14:13:40.921Z,10.5
2019-02-17T14:14:50.552Z,10.7
2019-02-17T14:16:00.030Z,10
2019-02-17T14:17:09.517Z,11.2
2019-02-17T14:18:19.019Z,11.1
2019-02-17T14:19:28.553Z,11.3
2019-02-17T14:20:38.122Z,11.2
2019-02-17T14:21:47.637Z,11.6
2019-02-17T14:22:57.136Z,11.5
2019-02-17T14:24:06.700Z,10.8
2019-02-17T14:25:16.430Z,11.3
2019-02-17T14:26:25.826Z,11.6
2019-02-17T14:27:35.261Z,11.7
2019-02-17T14:28:44.813Z,12
2019-02-17T14:29:54.259Z,12.3
2019-02-17T14:31:03.803Z,11.5
2019-02-17T14:32:13.301Z,11.7
2019-02-17T14:33:22.810Z,12.1
2019-02-17T14:34:32.360Z,12.1
2019-02-17T14:35:41.840Z,12.1
2019-02-17T14:36:51.355Z,12.8
2019-02-17T14:38:00.881Z,12.9
2019-02-17T14:39:10.382Z,13
2019-02-17T14:40:19.899Z,12.5
2019-02-17T14:41:29.442Z,12.3
2019-02-17T14:42:38.952Z,13
2019-02-17T14:43:49.695Z,13.1
2019-02-17T14:44:59.183Z,13.4
2019-02-17T14:46:08.685Z,13.5
2019-02-17T14:47:18.331Z,14
2019-02-17T14:48:27.701Z,14.3
2019-02-17T14:49:37.212Z,14.3
2019-02-17T14:50:46.708Z,14.1
2019-02-17T14:51:56.240Z,14.2
2019-02-17T14:53:05.709Z,14.4
2019-02-17T14:54:15.239Z,14.6
2019-02-17T14:55:24.720Z,14.1
2019-02-17T14:56:34.225Z,14
2019-02-17T14:57:43.711Z,13.4
2019-02-17T14:58:53.199Z,13.7
2019-02-17T15:00:02.733Z,14.6
2019-02-17T15:01:12.263Z,15.5
2019-02-17T15:02:21.674Z,15.2
2019-02-17T15:03:31.228Z,15.5
2019-02-17T15:04:40.677Z,15.6
2019-02-17T15:05:50.144Z,15.1
2019-02-17T15:06:59.654Z,15.9
2019-02-17T15:08:09.125Z,15.9
2019-02-17T15:09:18.616Z,15.9
2019-02-17T15:10:28.113Z,15.9
2019-02-17T15:11:37.587Z,15.9
2019-02-17T15:12:47.143Z,15.9
2019-02-17T15:13:56.539Z,15.9
2019-02-17T15:15:06.203Z,16.2
2019-02-17T15:16:15.550Z,17.4
2019-02-17T15:17:25.009Z,16.7
2019-02-17T15:18:34.465Z,16.9
2019-02-17T15:19:43.939Z,17.4
2019-02-17T15:20:53.411Z,17
2019-02-17T15:22:02.888Z,16.6
2019-02-17T15:23:12.448Z,16.5
2019-02-17T15:24:21.833Z,16
2019-02-17T15:25:31.445Z,16
2019-02-17T15:26:40.771Z,16.5
2019-02-17T15:27:50.263Z,16
2019-02-17T15:28:59.707Z,16.7
2019-02-17T15:30:09.191Z,16.4
2019-02-17T15:31:18.684Z,16.5
2019-02-17T15:32:28.109Z,16.3
2019-02-17T15:33:37.581Z,16.6